sensor_id;sensor_type;location;lat;lon;timestamp;P1;durP1;ratioP1;P2;durP2;ratioP2
48975;SDS011;34791;52.752;8.346;2023-04-24T00:00:14;2.40;;;1.37;;
48975;SDS011;34791;52.752;8.346;2023-04-24T00:02:40;2.40;;;1.10;;
48975;SDS011;34791;52.752;8.346;2023-04-24T00:05:06;2.37;;;1.30;;
48975;SDS011;34791;52.752;8.346;2023-04-24T00:07:31;2.70;;;1.37;;
48975;SDS011;34791;52.752;8.346;2023-04-24T00:09:57;2.37;;;1.30;;
48975;SDS011;34791;52.752;8.346;2023-04-24T00:12:23;4.03;;;1.77;;
48975;SDS011;34791;52.752;8.346;2023-04-24T00:14:48;2.33;;;1.50;;
48975;SDS011;34791;52.752;8.346;2023-04-24T00:17:13;3.10;;;1.77;;
48975;SDS011;34791;52.752;8.346;2023-04-24T00:19:38;4.00;;;1.70;;
48975;SDS011;34791;52.752;8.346;2023-04-24T00:22:04;2.90;;;1.70;;
48975;SDS011;34791;52.752;8.346;2023-04-24T00:24:29;3.67;;;2.13;;
48975;SDS011;34791;52.752;8.346;2023-04-24T00:26:54;3.33;;;2.03;;
48975;SDS011;34791;52.752;8.346;2023-04-24T00:29:20;4.33;;;2.40;;
48975;SDS011;34791;52.752;8.346;2023-04-24T00:31:45;3.53;;;2.30;;
48975;SDS011;34791;52.752;8.346;2023-04-24T00:34:10;3.70;;;2.60;;
48975;SDS011;34791;52.752;8.346;2023-04-24T00:36:36;4.43;;;2.73;;
48975;SDS011;34791;52.752;8.346;2023-04-24T00:39:02;4.07;;;2.33;;
48975;SDS011;34791;52.752;8.346;2023-04-24T00:41:27;3.40;;;2.30;;
48975;SDS011;34791;52.752;8.346;2023-04-24T00:43:52;4.40;;;2.47;;
48975;SDS011;34791;52.752;8.346;2023-04-24T00:46:18;4.13;;;2.40;;
48975;SDS011;34791;52.752;8.346;2023-04-24T00:48:43;3.80;;;2.50;;
48975;SDS011;34791;52.752;8.346;2023-04-24T00:51:09;3.30;;;2.37;;
48975;SDS011;34791;52.752;8.346;2023-04-24T00:53:34;4.57;;;2.33;;
48975;SDS011;34791;52.752;8.346;2023-04-24T00:56:00;3.37;;;2.37;;
48975;SDS011;34791;52.752;8.346;2023-04-24T00:58:26;3.63;;;2.27;;
48975;SDS011;34791;52.752;8.346;2023-04-24T01:03:54;3.57;;;2.40;;
48975;SDS011;34791;52.752;8.346;2023-04-24T01:06:20;4.43;;;2.37;;
48975;SDS011;34791;52.752;8.346;2023-04-24T01:08:45;3.00;;;1.90;;
48975;SDS011;34791;52.752;8.346;2023-04-24T01:11:11;3.70;;;1.90;;
48975;SDS011;34791;52.752;8.346;2023-04-24T01:13:36;2.90;;;1.83;;
48975;SDS011;34791;52.752;8.346;2023-04-24T01:16:02;3.47;;;1.80;;
48975;SDS011;34791;52.752;8.346;2023-04-24T01:18:27;3.33;;;2.10;;
48975;SDS011;34791;52.752;8.346;2023-04-24T01:20:53;2.90;;;1.90;;
48975;SDS011;34791;52.752;8.346;2023-04-24T01:23:20;3.87;;;2.30;;
48975;SDS011;34791;52.752;8.346;2023-04-24T01:25:46;4.53;;;2.07;;
48975;SDS011;34791;52.752;8.346;2023-04-24T01:28:11;3.40;;;2.20;;
48975;SDS011;34791;52.752;8.346;2023-04-24T01:30:39;3.30;;;2.00;;
48975;SDS011;34791;52.752;8.346;2023-04-24T01:33:04;3.50;;;2.07;;
48975;SDS011;34791;52.752;8.346;2023-04-24T01:35:30;3.40;;;2.03;;
48975;SDS011;34791;52.752;8.346;2023-04-24T01:37:55;4.37;;;2.07;;
48975;SDS011;34791;52.752;8.346;2023-04-24T01:40:20;4.10;;;2.00;;
48975;SDS011;34791;52.752;8.346;2023-04-24T01:42:46;4.00;;;2.10;;
48975;SDS011;34791;52.752;8.346;2023-04-24T01:45:12;4.90;;;2.90;;
48975;SDS011;34791;52.752;8.346;2023-04-24T01:47:38;4.23;;;2.63;;
48975;SDS011;34791;52.752;8.346;2023-04-24T01:50:03;5.27;;;3.30;;
48975;SDS011;34791;52.752;8.346;2023-04-24T01:52:29;5.50;;;4.47;;
48975;SDS011;34791;52.752;8.346;2023-04-24T01:54:56;8.20;;;5.40;;
48975;SDS011;34791;52.752;8.346;2023-04-24T01:57:21;7.03;;;5.67;;
48975;SDS011;34791;52.752;8.346;2023-04-24T01:59:47;7.57;;;6.43;;
48975;SDS011;34791;52.752;8.346;2023-04-24T02:02:12;9.93;;;7.07;;
48975;SDS011;34791;52.752;8.346;2023-04-24T02:04:37;7.57;;;5.00;;
48975;SDS011;34791;52.752;8.346;2023-04-24T02:07:03;9.33;;;6.97;;
48975;SDS011;34791;52.752;8.346;2023-04-24T02:09:28;9.00;;;7.03;;
48975;SDS011;34791;52.752;8.346;2023-04-24T02:11:53;9.27;;;6.90;;
48975;SDS011;34791;52.752;8.346;2023-04-24T02:14:18;9.37;;;6.43;;
48975;SDS011;34791;52.752;8.346;2023-04-24T02:16:44;11.50;;;7.60;;
48975;SDS011;34791;52.752;8.346;2023-04-24T02:19:09;11.70;;;7.87;;
48975;SDS011;34791;52.752;8.346;2023-04-24T02:21:35;13.33;;;8.00;;
48975;SDS011;34791;52.752;8.346;2023-04-24T02:24:00;9.10;;;7.07;;
48975;SDS011;34791;52.752;8.346;2023-04-24T02:26:26;8.87;;;6.77;;
48975;SDS011;34791;52.752;8.346;2023-04-24T02:28:51;8.40;;;6.00;;
48975;SDS011;34791;52.752;8.346;2023-04-24T02:31:16;9.43;;;6.87;;
48975;SDS011;34791;52.752;8.346;2023-04-24T02:33:42;9.83;;;6.73;;
48975;SDS011;34791;52.752;8.346;2023-04-24T02:36:07;9.70;;;6.97;;
48975;SDS011;34791;52.752;8.346;2023-04-24T02:38:32;8.77;;;5.03;;
48975;SDS011;34791;52.752;8.346;2023-04-24T02:40:57;9.37;;;4.53;;
48975;SDS011;34791;52.752;8.346;2023-04-24T02:43:23;9.03;;;5.70;;
48975;SDS011;34791;52.752;8.346;2023-04-24T02:45:48;8.27;;;6.30;;
48975;SDS011;34791;52.752;8.346;2023-04-24T02:48:14;7.50;;;5.37;;
48975;SDS011;34791;52.752;8.346;2023-04-24T02:50:39;10.40;;;6.00;;
48975;SDS011;34791;52.752;8.346;2023-04-24T02:53:04;9.40;;;5.80;;
48975;SDS011;34791;52.752;8.346;2023-04-24T02:55:30;8.93;;;5.87;;
48975;SDS011;34791;52.752;8.346;2023-04-24T02:57:55;8.50;;;5.13;;
48975;SDS011;34791;52.752;8.346;2023-04-24T03:00:20;7.43;;;5.50;;
48975;SDS011;34791;52.752;8.346;2023-04-24T03:02:46;7.63;;;5.27;;
48975;SDS011;34791;52.752;8.346;2023-04-24T03:05:11;7.70;;;5.67;;
48975;SDS011;34791;52.752;8.346;2023-04-24T03:07:39;8.80;;;6.03;;
48975;SDS011;34791;52.752;8.346;2023-04-24T03:10:05;7.90;;;5.70;;
48975;SDS011;34791;52.752;8.346;2023-04-24T03:12:30;7.90;;;6.40;;
48975;SDS011;34791;52.752;8.346;2023-04-24T03:14:56;10.90;;;6.27;;
48975;SDS011;34791;52.752;8.346;2023-04-24T03:17:21;8.60;;;6.23;;
48975;SDS011;34791;52.752;8.346;2023-04-24T03:19:46;8.60;;;6.13;;
48975;SDS011;34791;52.752;8.346;2023-04-24T03:22:12;8.70;;;5.80;;
48975;SDS011;34791;52.752;8.346;2023-04-24T03:24:37;8.57;;;6.23;;
48975;SDS011;34791;52.752;8.346;2023-04-24T03:27:02;8.20;;;5.57;;
48975;SDS011;34791;52.752;8.346;2023-04-24T03:29:28;8.87;;;6.27;;
48975;SDS011;34791;52.752;8.346;2023-04-24T03:31:53;8.13;;;5.80;;
48975;SDS011;34791;52.752;8.346;2023-04-24T03:34:18;7.77;;;5.60;;
48975;SDS011;34791;52.752;8.346;2023-04-24T03:36:43;7.63;;;5.13;;
48975;SDS011;34791;52.752;8.346;2023-04-24T03:39:09;9.03;;;4.70;;
48975;SDS011;34791;52.752;8.346;2023-04-24T03:41:35;7.00;;;4.57;;
48975;SDS011;34791;52.752;8.346;2023-04-24T03:44:00;5.50;;;3.70;;
48975;SDS011;34791;52.752;8.346;2023-04-24T03:46:25;7.10;;;4.50;;
48975;SDS011;34791;52.752;8.346;2023-04-24T03:48:51;6.23;;;4.30;;
48975;SDS011;34791;52.752;8.346;2023-04-24T03:51:16;6.97;;;4.40;;
48975;SDS011;34791;52.752;8.346;2023-04-24T03:53:41;6.40;;;4.00;;
48975;SDS011;34791;52.752;8.346;2023-04-24T03:56:07;6.77;;;3.87;;
48975;SDS011;34791;52.752;8.346;2023-04-24T03:58:32;7.33;;;3.90;;
48975;SDS011;34791;52.752;8.346;2023-04-24T04:00:57;6.77;;;3.70;;
48975;SDS011;34791;52.752;8.346;2023-04-24T04:03:23;5.57;;;3.37;;
48975;SDS011;34791;52.752;8.346;2023-04-24T04:05:48;4.40;;;2.87;;
48975;SDS011;34791;52.752;8.346;2023-04-24T04:08:14;5.47;;;3.40;;
48975;SDS011;34791;52.752;8.346;2023-04-24T04:10:39;7.33;;;3.50;;
48975;SDS011;34791;52.752;8.346;2023-04-24T04:13:05;6.23;;;3.20;;
48975;SDS011;34791;52.752;8.346;2023-04-24T04:15:31;4.97;;;3.03;;
48975;SDS011;34791;52.752;8.346;2023-04-24T04:17:56;6.37;;;3.30;;
48975;SDS011;34791;52.752;8.346;2023-04-24T04:20:22;5.73;;;3.43;;
48975;SDS011;34791;52.752;8.346;2023-04-24T04:22:47;5.60;;;3.80;;
48975;SDS011;34791;52.752;8.346;2023-04-24T04:25:12;5.53;;;3.60;;
48975;SDS011;34791;52.752;8.346;2023-04-24T04:27:38;5.80;;;3.60;;
48975;SDS011;34791;52.752;8.346;2023-04-24T04:30:04;6.70;;;3.10;;
48975;SDS011;34791;52.752;8.346;2023-04-24T04:32:31;6.43;;;3.30;;
48975;SDS011;34791;52.752;8.346;2023-04-24T04:34:58;5.80;;;2.80;;
48975;SDS011;34791;52.752;8.346;2023-04-24T04:37:23;6.77;;;3.87;;
48975;SDS011;34791;52.752;8.346;2023-04-24T04:39:48;7.83;;;4.63;;
48975;SDS011;34791;52.752;8.346;2023-04-24T04:42:14;6.57;;;4.27;;
48975;SDS011;34791;52.752;8.346;2023-04-24T04:44:40;8.27;;;4.77;;
48975;SDS011;34791;52.752;8.346;2023-04-24T04:47:05;8.03;;;4.80;;
48975;SDS011;34791;52.752;8.346;2023-04-24T04:49:34;9.77;;;5.53;;
48975;SDS011;34791;52.752;8.346;2023-04-24T04:51:59;9.37;;;6.03;;
48975;SDS011;34791;52.752;8.346;2023-04-24T04:54:25;8.53;;;5.57;;
48975;SDS011;34791;52.752;8.346;2023-04-24T04:56:50;8.10;;;4.83;;
48975;SDS011;34791;52.752;8.346;2023-04-24T04:59:16;11.83;;;6.83;;
48975;SDS011;34791;52.752;8.346;2023-04-24T05:01:41;8.13;;;4.97;;
48975;SDS011;34791;52.752;8.346;2023-04-24T05:04:06;10.70;;;7.10;;
48975;SDS011;34791;52.752;8.346;2023-04-24T05:06:32;10.07;;;6.63;;
48975;SDS011;34791;52.752;8.346;2023-04-24T05:08:57;8.90;;;6.57;;
48975;SDS011;34791;52.752;8.346;2023-04-24T05:11:22;10.50;;;6.50;;
48975;SDS011;34791;52.752;8.346;2023-04-24T05:13:48;11.80;;;7.17;;
48975;SDS011;34791;52.752;8.346;2023-04-24T05:16:13;12.63;;;7.40;;
48975;SDS011;34791;52.752;8.346;2023-04-24T05:18:38;11.57;;;7.53;;
48975;SDS011;34791;52.752;8.346;2023-04-24T05:21:04;11.47;;;7.80;;
48975;SDS011;34791;52.752;8.346;2023-04-24T05:23:29;12.03;;;6.80;;
48975;SDS011;34791;52.752;8.346;2023-04-24T05:25:54;10.50;;;6.63;;
48975;SDS011;34791;52.752;8.346;2023-04-24T05:28:20;11.87;;;8.10;;
48975;SDS011;34791;52.752;8.346;2023-04-24T05:30:46;11.67;;;7.97;;
48975;SDS011;34791;52.752;8.346;2023-04-24T05:33:11;12.13;;;7.77;;
48975;SDS011;34791;52.752;8.346;2023-04-24T05:35:36;11.67;;;7.30;;
48975;SDS011;34791;52.752;8.346;2023-04-24T05:38:01;11.10;;;7.63;;
48975;SDS011;34791;52.752;8.346;2023-04-24T05:40:27;14.00;;;9.90;;
48975;SDS011;34791;52.752;8.346;2023-04-24T05:42:52;13.50;;;9.67;;
48975;SDS011;34791;52.752;8.346;2023-04-24T05:45:17;14.93;;;10.07;;
48975;SDS011;34791;52.752;8.346;2023-04-24T05:47:43;15.23;;;10.47;;
48975;SDS011;34791;52.752;8.346;2023-04-24T05:50:09;15.83;;;10.27;;
48975;SDS011;34791;52.752;8.346;2023-04-24T05:52:34;18.73;;;10.77;;
48975;SDS011;34791;52.752;8.346;2023-04-24T05:55:00;11.87;;;8.70;;
48975;SDS011;34791;52.752;8.346;2023-04-24T05:57:25;13.70;;;9.20;;
48975;SDS011;34791;52.752;8.346;2023-04-24T05:59:51;15.50;;;11.73;;
48975;SDS011;34791;52.752;8.346;2023-04-24T06:02:16;14.37;;;9.97;;
48975;SDS011;34791;52.752;8.346;2023-04-24T06:04:42;14.10;;;9.37;;
48975;SDS011;34791;52.752;8.346;2023-04-24T06:07:07;17.33;;;11.87;;
48975;SDS011;34791;52.752;8.346;2023-04-24T06:09:32;16.70;;;10.80;;
48975;SDS011;34791;52.752;8.346;2023-04-24T06:11:58;16.73;;;11.70;;
48975;SDS011;34791;52.752;8.346;2023-04-24T06:14:24;14.50;;;8.23;;
48975;SDS011;34791;52.752;8.346;2023-04-24T06:16:50;15.30;;;9.77;;
48975;SDS011;34791;52.752;8.346;2023-04-24T06:19:15;15.57;;;8.60;;
48975;SDS011;34791;52.752;8.346;2023-04-24T06:21:41;17.13;;;11.27;;
48975;SDS011;34791;52.752;8.346;2023-04-24T06:24:06;11.63;;;7.47;;
48975;SDS011;34791;52.752;8.346;2023-04-24T06:26:31;15.43;;;9.70;;
48975;SDS011;34791;52.752;8.346;2023-04-24T06:28:57;13.87;;;9.13;;
48975;SDS011;34791;52.752;8.346;2023-04-24T06:31:24;16.37;;;9.17;;
48975;SDS011;34791;52.752;8.346;2023-04-24T06:33:49;14.57;;;9.10;;
48975;SDS011;34791;52.752;8.346;2023-04-24T06:36:15;13.00;;;6.90;;
48975;SDS011;34791;52.752;8.346;2023-04-24T06:38:40;14.00;;;8.93;;
48975;SDS011;34791;52.752;8.346;2023-04-24T06:41:06;16.83;;;8.87;;
48975;SDS011;34791;52.752;8.346;2023-04-24T06:43:31;13.03;;;7.20;;
48975;SDS011;34791;52.752;8.346;2023-04-24T06:45:57;13.40;;;7.63;;
48975;SDS011;34791;52.752;8.346;2023-04-24T06:48:23;12.23;;;8.47;;
48975;SDS011;34791;52.752;8.346;2023-04-24T06:50:48;16.13;;;7.27;;
48975;SDS011;34791;52.752;8.346;2023-04-24T06:53:14;12.47;;;8.43;;
48975;SDS011;34791;52.752;8.346;2023-04-24T06:55:39;13.13;;;7.83;;
48975;SDS011;34791;52.752;8.346;2023-04-24T06:58:05;12.00;;;7.47;;
48975;SDS011;34791;52.752;8.346;2023-04-24T07:00:31;11.23;;;7.10;;
48975;SDS011;34791;52.752;8.346;2023-04-24T07:02:56;12.00;;;7.93;;
48975;SDS011;34791;52.752;8.346;2023-04-24T07:05:22;12.00;;;7.43;;
48975;SDS011;34791;52.752;8.346;2023-04-24T07:07:48;13.43;;;8.23;;
48975;SDS011;34791;52.752;8.346;2023-04-24T07:10:14;14.73;;;8.17;;
48975;SDS011;34791;52.752;8.346;2023-04-24T07:12:40;12.77;;;7.60;;
48975;SDS011;34791;52.752;8.346;2023-04-24T07:15:06;12.77;;;8.33;;
48975;SDS011;34791;52.752;8.346;2023-04-24T07:17:31;12.43;;;8.50;;
48975;SDS011;34791;52.752;8.346;2023-04-24T07:19:56;13.07;;;7.13;;
48975;SDS011;34791;52.752;8.346;2023-04-24T07:22:22;16.33;;;8.27;;
48975;SDS011;34791;52.752;8.346;2023-04-24T07:24:47;13.10;;;8.60;;
48975;SDS011;34791;52.752;8.346;2023-04-24T07:27:13;14.50;;;8.23;;
48975;SDS011;34791;52.752;8.346;2023-04-24T07:29:39;15.23;;;9.90;;
48975;SDS011;34791;52.752;8.346;2023-04-24T07:32:05;12.37;;;7.87;;
48975;SDS011;34791;52.752;8.346;2023-04-24T07:34:31;14.47;;;9.63;;
48975;SDS011;34791;52.752;8.346;2023-04-24T07:36:56;13.87;;;9.77;;
48975;SDS011;34791;52.752;8.346;2023-04-24T07:39:21;12.17;;;6.37;;
48975;SDS011;34791;52.752;8.346;2023-04-24T07:41:47;12.80;;;8.50;;
48975;SDS011;34791;52.752;8.346;2023-04-24T07:44:12;17.00;;;10.60;;
48975;SDS011;34791;52.752;8.346;2023-04-24T07:46:37;14.07;;;8.47;;
48975;SDS011;34791;52.752;8.346;2023-04-24T07:49:03;15.47;;;10.03;;
48975;SDS011;34791;52.752;8.346;2023-04-24T07:51:29;12.30;;;8.10;;
48975;SDS011;34791;52.752;8.346;2023-04-24T07:53:55;13.50;;;8.03;;
48975;SDS011;34791;52.752;8.346;2023-04-24T07:56:20;12.53;;;7.90;;
48975;SDS011;34791;52.752;8.346;2023-04-24T07:58:46;12.43;;;8.63;;
48975;SDS011;34791;52.752;8.346;2023-04-24T08:01:11;14.97;;;9.97;;
48975;SDS011;34791;52.752;8.346;2023-04-24T08:03:36;16.80;;;10.33;;
48975;SDS011;34791;52.752;8.346;2023-04-24T08:06:02;16.63;;;9.93;;
48975;SDS011;34791;52.752;8.346;2023-04-24T08:08:27;14.83;;;8.80;;
48975;SDS011;34791;52.752;8.346;2023-04-24T08:10:53;16.23;;;10.93;;
48975;SDS011;34791;52.752;8.346;2023-04-24T08:13:18;14.60;;;9.93;;
48975;SDS011;34791;52.752;8.346;2023-04-24T08:15:43;17.00;;;9.30;;
48975;SDS011;34791;52.752;8.346;2023-04-24T08:18:09;17.33;;;9.77;;
48975;SDS011;34791;52.752;8.346;2023-04-24T08:20:36;18.97;;;11.17;;
48975;SDS011;34791;52.752;8.346;2023-04-24T08:23:02;14.97;;;8.97;;
48975;SDS011;34791;52.752;8.346;2023-04-24T08:25:27;15.80;;;9.30;;
48975;SDS011;34791;52.752;8.346;2023-04-24T08:27:52;11.30;;;7.53;;
48975;SDS011;34791;52.752;8.346;2023-04-24T08:30:18;15.10;;;9.10;;
48975;SDS011;34791;52.752;8.346;2023-04-24T08:32:43;16.17;;;9.40;;
48975;SDS011;34791;52.752;8.346;2023-04-24T08:35:08;15.73;;;10.50;;
48975;SDS011;34791;52.752;8.346;2023-04-24T08:37:34;18.70;;;13.00;;
48975;SDS011;34791;52.752;8.346;2023-04-24T08:40:00;22.17;;;14.23;;
48975;SDS011;34791;52.752;8.346;2023-04-24T08:42:25;19.70;;;12.87;;
48975;SDS011;34791;52.752;8.346;2023-04-24T08:44:53;20.17;;;13.40;;
48975;SDS011;34791;52.752;8.346;2023-04-24T08:47:19;24.30;;;15.03;;
48975;SDS011;34791;52.752;8.346;2023-04-24T08:49:45;20.53;;;12.63;;
48975;SDS011;34791;52.752;8.346;2023-04-24T08:52:13;21.63;;;14.33;;
48975;SDS011;34791;52.752;8.346;2023-04-24T08:54:38;20.53;;;15.27;;
48975;SDS011;34791;52.752;8.346;2023-04-24T08:57:04;21.57;;;13.07;;
48975;SDS011;34791;52.752;8.346;2023-04-24T08:59:32;18.10;;;12.37;;
48975;SDS011;34791;52.752;8.346;2023-04-24T09:01:59;18.27;;;10.50;;
48975;SDS011;34791;52.752;8.346;2023-04-24T09:04:25;14.27;;;7.93;;
48975;SDS011;34791;52.752;8.346;2023-04-24T09:06:51;16.00;;;11.30;;
48975;SDS011;34791;52.752;8.346;2023-04-24T09:09:16;14.73;;;10.43;;
48975;SDS011;34791;52.752;8.346;2023-04-24T09:11:43;17.23;;;9.87;;
48975;SDS011;34791;52.752;8.346;2023-04-24T09:14:09;12.73;;;9.03;;
48975;SDS011;34791;52.752;8.346;2023-04-24T09:16:34;12.30;;;8.47;;
48975;SDS011;34791;52.752;8.346;2023-04-24T09:19:00;13.37;;;7.83;;
48975;SDS011;34791;52.752;8.346;2023-04-24T09:21:25;10.87;;;8.37;;
48975;SDS011;34791;52.752;8.346;2023-04-24T09:24:06;12.25;;;8.25;;
48975;SDS011;34791;52.752;8.346;2023-04-24T09:26:34;12.03;;;7.67;;
48975;SDS011;34791;52.752;8.346;2023-04-24T09:28:59;13.00;;;8.90;;
48975;SDS011;34791;52.752;8.346;2023-04-24T09:31:26;13.93;;;7.97;;
48975;SDS011;34791;52.752;8.346;2023-04-24T09:33:55;12.13;;;9.00;;
48975;SDS011;34791;52.752;8.346;2023-04-24T09:36:31;9.80;;;6.90;;
48975;SDS011;34791;52.752;8.346;2023-04-24T09:39:02;11.70;;;6.67;;
48975;SDS011;34791;52.752;8.346;2023-04-24T09:41:27;11.57;;;7.13;;
48975;SDS011;34791;52.752;8.346;2023-04-24T09:43:54;9.50;;;6.63;;
48975;SDS011;34791;52.752;8.346;2023-04-24T09:46:20;14.13;;;9.47;;
48975;SDS011;34791;52.752;8.346;2023-04-24T09:48:46;15.67;;;11.73;;
48975;SDS011;34791;52.752;8.346;2023-04-24T09:51:12;13.40;;;9.87;;
48975;SDS011;34791;52.752;8.346;2023-04-24T09:53:37;13.20;;;10.33;;
48975;SDS011;34791;52.752;8.346;2023-04-24T09:56:07;14.33;;;9.93;;
48975;SDS011;34791;52.752;8.346;2023-04-24T09:58:34;10.47;;;8.13;;
48975;SDS011;34791;52.752;8.346;2023-04-24T10:01:00;10.40;;;7.13;;
48975;SDS011;34791;52.752;8.346;2023-04-24T10:03:26;9.73;;;5.80;;
48975;SDS011;34791;52.752;8.346;2023-04-24T10:05:52;12.13;;;7.73;;
48975;SDS011;34791;52.752;8.346;2023-04-24T10:08:18;11.00;;;8.73;;
48975;SDS011;34791;52.752;8.346;2023-04-24T10:10:43;10.27;;;7.00;;
48975;SDS011;34791;52.752;8.346;2023-04-24T10:13:10;12.50;;;8.40;;
48975;SDS011;34791;52.752;8.346;2023-04-24T10:15:35;9.50;;;6.83;;
48975;SDS011;34791;52.752;8.346;2023-04-24T10:18:01;10.07;;;7.67;;
48975;SDS011;34791;52.752;8.346;2023-04-24T10:20:28;8.40;;;6.83;;
48975;SDS011;34791;52.752;8.346;2023-04-24T10:22:55;9.27;;;7.80;;
48975;SDS011;34791;52.752;8.346;2023-04-24T10:25:22;11.67;;;7.83;;
48975;SDS011;34791;52.752;8.346;2023-04-24T10:27:48;8.80;;;6.40;;
48975;SDS011;34791;52.752;8.346;2023-04-24T10:30:14;8.37;;;6.47;;
48975;SDS011;34791;52.752;8.346;2023-04-24T10:32:39;10.67;;;7.73;;
48975;SDS011;34791;52.752;8.346;2023-04-24T10:35:08;8.73;;;6.43;;
48975;SDS011;34791;52.752;8.346;2023-04-24T10:37:35;7.90;;;5.87;;
48975;SDS011;34791;52.752;8.346;2023-04-24T10:40:01;9.33;;;6.10;;
48975;SDS011;34791;52.752;8.346;2023-04-24T10:42:27;7.93;;;4.87;;
48975;SDS011;34791;52.752;8.346;2023-04-24T10:44:52;6.97;;;5.33;;
48975;SDS011;34791;52.752;8.346;2023-04-24T10:47:18;7.07;;;3.83;;
48975;SDS011;34791;52.752;8.346;2023-04-24T10:49:44;5.77;;;4.03;;
48975;SDS011;34791;52.752;8.346;2023-04-24T10:52:09;6.80;;;4.63;;
48975;SDS011;34791;52.752;8.346;2023-04-24T10:54:36;8.37;;;4.97;;
48975;SDS011;34791;52.752;8.346;2023-04-24T11:00:20;7.93;;;5.03;;
48975;SDS011;34791;52.752;8.346;2023-04-24T11:02:46;14.63;;;5.60;;
48975;SDS011;34791;52.752;8.346;2023-04-24T11:05:14;8.87;;;6.30;;
48975;SDS011;34791;52.752;8.346;2023-04-24T11:10:27;8.73;;;4.40;;
48975;SDS011;34791;52.752;8.346;2023-04-24T11:12:53;6.67;;;3.93;;
48975;SDS011;34791;52.752;8.346;2023-04-24T11:15:19;5.30;;;3.23;;
48975;SDS011;34791;52.752;8.346;2023-04-24T11:17:45;5.03;;;2.90;;
48975;SDS011;34791;52.752;8.346;2023-04-24T11:20:11;5.97;;;3.50;;
48975;SDS011;34791;52.752;8.346;2023-04-24T11:22:39;12.00;;;3.10;;
48975;SDS011;34791;52.752;8.346;2023-04-24T11:25:10;6.82;;;3.80;;
48975;SDS011;34791;52.752;8.346;2023-04-24T11:27:43;7.07;;;3.17;;
48975;SDS011;34791;52.752;8.346;2023-04-24T11:30:09;6.10;;;3.17;;
48975;SDS011;34791;52.752;8.346;2023-04-24T11:32:36;4.70;;;2.40;;
48975;SDS011;34791;52.752;8.346;2023-04-24T11:35:02;6.37;;;2.10;;
48975;SDS011;34791;52.752;8.346;2023-04-24T11:37:38;5.17;;;2.40;;
48975;SDS011;34791;52.752;8.346;2023-04-24T11:40:04;3.80;;;1.73;;
48975;SDS011;34791;52.752;8.346;2023-04-24T11:42:34;4.77;;;2.23;;
48975;SDS011;34791;52.752;8.346;2023-04-24T11:44:59;3.93;;;1.87;;
48975;SDS011;34791;52.752;8.346;2023-04-24T11:47:30;5.53;;;2.53;;
48975;SDS011;34791;52.752;8.346;2023-04-24T11:49:55;5.90;;;2.50;;
48975;SDS011;34791;52.752;8.346;2023-04-24T11:52:21;8.37;;;2.17;;
48975;SDS011;34791;52.752;8.346;2023-04-24T11:54:47;6.43;;;3.23;;
48975;SDS011;34791;52.752;8.346;2023-04-24T11:57:13;8.80;;;3.67;;
48975;SDS011;34791;52.752;8.346;2023-04-24T11:59:38;10.50;;;5.07;;
48975;SDS011;34791;52.752;8.346;2023-04-24T12:02:03;10.47;;;5.47;;
48975;SDS011;34791;52.752;8.346;2023-04-24T12:04:37;11.47;;;5.97;;
48975;SDS011;34791;52.752;8.346;2023-04-24T12:07:03;14.23;;;7.23;;
48975;SDS011;34791;52.752;8.346;2023-04-24T12:09:40;14.83;;;7.10;;
48975;SDS011;34791;52.752;8.346;2023-04-24T12:12:06;16.60;;;8.10;;
48975;SDS011;34791;52.752;8.346;2023-04-24T12:14:31;15.77;;;8.20;;
48975;SDS011;34791;52.752;8.346;2023-04-24T12:16:56;12.93;;;7.10;;
48975;SDS011;34791;52.752;8.346;2023-04-24T12:19:22;20.73;;;9.97;;
48975;SDS011;34791;52.752;8.346;2023-04-24T12:22:00;18.27;;;9.10;;
48975;SDS011;34791;52.752;8.346;2023-04-24T12:24:26;22.73;;;9.60;;
48975;SDS011;34791;52.752;8.346;2023-04-24T12:26:51;17.30;;;9.00;;
48975;SDS011;34791;52.752;8.346;2023-04-24T12:29:21;24.30;;;11.67;;
48975;SDS011;34791;52.752;8.346;2023-04-24T12:31:46;16.53;;;7.70;;
48975;SDS011;34791;52.752;8.346;2023-04-24T12:34:22;14.70;;;7.17;;
48975;SDS011;34791;52.752;8.346;2023-04-24T12:36:48;20.33;;;10.13;;
48975;SDS011;34791;52.752;8.346;2023-04-24T12:39:14;11.43;;;5.07;;
48975;SDS011;34791;52.752;8.346;2023-04-24T12:41:48;10.53;;;4.63;;
48975;SDS011;34791;52.752;8.346;2023-04-24T12:44:13;11.90;;;6.20;;
48975;SDS011;34791;52.752;8.346;2023-04-24T12:46:40;15.23;;;7.50;;
48975;SDS011;34791;52.752;8.346;2023-04-24T12:49:05;18.13;;;7.83;;
48975;SDS011;34791;52.752;8.346;2023-04-24T12:51:31;12.90;;;6.27;;
48975;SDS011;34791;52.752;8.346;2023-04-24T12:53:56;15.43;;;7.83;;
48975;SDS011;34791;52.752;8.346;2023-04-24T12:56:21;15.10;;;8.07;;
48975;SDS011;34791;52.752;8.346;2023-04-24T12:58:47;16.67;;;8.00;;
48975;SDS011;34791;52.752;8.346;2023-04-24T13:01:12;13.43;;;7.60;;
48975;SDS011;34791;52.752;8.346;2023-04-24T13:03:37;15.33;;;8.43;;
48975;SDS011;34791;52.752;8.346;2023-04-24T13:06:03;13.97;;;6.80;;
48975;SDS011;34791;52.752;8.346;2023-04-24T13:08:28;8.53;;;4.77;;
48975;SDS011;34791;52.752;8.346;2023-04-24T13:10:53;9.73;;;4.33;;
48975;SDS011;34791;52.752;8.346;2023-04-24T13:13:19;9.60;;;4.83;;
48975;SDS011;34791;52.752;8.346;2023-04-24T13:15:44;12.33;;;6.53;;
48975;SDS011;34791;52.752;8.346;2023-04-24T13:18:09;12.60;;;5.40;;
48975;SDS011;34791;52.752;8.346;2023-04-24T13:20:35;15.47;;;7.43;;
48975;SDS011;34791;52.752;8.346;2023-04-24T13:23:00;15.03;;;7.63;;
48975;SDS011;34791;52.752;8.346;2023-04-24T13:25:26;13.13;;;7.33;;
48975;SDS011;34791;52.752;8.346;2023-04-24T13:27:51;15.37;;;7.57;;
48975;SDS011;34791;52.752;8.346;2023-04-24T13:30:16;16.10;;;8.33;;
48975;SDS011;34791;52.752;8.346;2023-04-24T13:32:42;16.57;;;8.47;;
48975;SDS011;34791;52.752;8.346;2023-04-24T13:35:07;14.13;;;7.70;;
48975;SDS011;34791;52.752;8.346;2023-04-24T13:37:33;16.77;;;8.60;;
48975;SDS011;34791;52.752;8.346;2023-04-24T13:39:58;19.37;;;8.47;;
48975;SDS011;34791;52.752;8.346;2023-04-24T13:42:23;19.60;;;9.23;;
48975;SDS011;34791;52.752;8.346;2023-04-24T13:44:48;17.87;;;9.13;;
48975;SDS011;34791;52.752;8.346;2023-04-24T13:47:14;10.47;;;5.43;;
48975;SDS011;34791;52.752;8.346;2023-04-24T13:49:39;13.97;;;6.97;;
48975;SDS011;34791;52.752;8.346;2023-04-24T13:52:04;16.30;;;8.07;;
48975;SDS011;34791;52.752;8.346;2023-04-24T13:54:30;18.57;;;7.73;;
48975;SDS011;34791;52.752;8.346;2023-04-24T13:56:57;14.17;;;6.33;;
48975;SDS011;34791;52.752;8.346;2023-04-24T13:59:22;16.50;;;7.47;;
48975;SDS011;34791;52.752;8.346;2023-04-24T14:01:48;18.27;;;7.60;;
48975;SDS011;34791;52.752;8.346;2023-04-24T14:04:13;15.20;;;5.80;;
48975;SDS011;34791;52.752;8.346;2023-04-24T14:06:39;12.60;;;5.47;;
48975;SDS011;34791;52.752;8.346;2023-04-24T14:09:04;12.70;;;5.37;;
48975;SDS011;34791;52.752;8.346;2023-04-24T14:11:29;11.90;;;5.03;;
48975;SDS011;34791;52.752;8.346;2023-04-24T14:13:55;10.00;;;4.50;;
48975;SDS011;34791;52.752;8.346;2023-04-24T14:16:23;12.10;;;4.37;;
48975;SDS011;34791;52.752;8.346;2023-04-24T14:18:49;11.70;;;5.10;;
48975;SDS011;34791;52.752;8.346;2023-04-24T14:21:15;12.67;;;5.10;;
48975;SDS011;34791;52.752;8.346;2023-04-24T14:23:40;16.10;;;4.10;;
48975;SDS011;34791;52.752;8.346;2023-04-24T14:26:06;15.33;;;5.43;;
48975;SDS011;34791;52.752;8.346;2023-04-24T14:28:32;11.70;;;4.70;;
48975;SDS011;34791;52.752;8.346;2023-04-24T14:30:57;13.07;;;3.63;;
48975;SDS011;34791;52.752;8.346;2023-04-24T14:33:22;10.67;;;4.03;;
48975;SDS011;34791;52.752;8.346;2023-04-24T14:35:47;8.37;;;3.60;;
48975;SDS011;34791;52.752;8.346;2023-04-24T14:38:13;8.23;;;3.87;;